Nearby METAR Reports

 

EGTE - Exeter Airport, United Kingdom
Distance from station: S 19km
Updated: 17/10/2017 10:20
Few Clouds
Few Clouds
 Wind from SSE
Wind: SSE 4 km/h
Temperature: 12°C
Dew Point: 9°C
Humidity: 82%
Barometer: 1020 hPa
Clouds: Few Clouds
Visibility: 10 km
Cloud details: Few Clouds 457 m
2017/10/17 09:20 EGTE 170920Z 15002KT 9999 FEW015 12/09 Q1020
EGDY - Yeovilton (navy), United Kingdom
Distance from station: ENE 55km
Updated: 17/10/2017 09:50
Mostly cloudy
Mostly cloudy
 Wind from SW
Wind: SW 6 km/h
Temperature: 12°C
Dew Point: 8°C
Humidity: 77%
Barometer: 1020 hPa
Clouds: Mostly cloudy
Visibility: 10 km
Cloud details: Few Clouds 1372 m
Mostly cloudy 3048 m
2017/10/17 08:50 EGDY 170850Z 23003KT 9999 FEW045 BKN100 12/08 Q1020 BLU NOSIG
 
EGFF - Cardiff-Wales Ar, United Kingdom
Distance from station: N 56km
Updated: 17/10/2017 10:20
Few Clouds
Few Clouds
 Wind from W
Wind: W 19 km/h
Temperature: 14°C
Dew Point: 9°C
Humidity: 72%
Barometer: 1019 hPa
Clouds: Few Clouds
Visibility: 10 km
Cloud details: Few Clouds 1097 m
2017/10/17 09:20 EGFF 170920Z AUTO 26010KT 9999 FEW036 14/09 Q1019
EGDX - St Athan Raf, United Kingdom
Distance from station: N 58km
Updated: 17/10/2017 09:50
Few Clouds
Few Clouds
 Wind from WSW
Wind: WSW 20 km/h
Temperature: 14°C
Dew Point: 9°C
Humidity: 72%
Barometer: 1019 hPa
Clouds: Few Clouds
Visibility: 10 km
Cloud details: Few Clouds 1067 m
2017/10/17 08:50 EGDX 170850Z 24011KT 9999 FEW035 14/09 Q1019 BLU
 
EGGD - Bristol/Lulsgate, United Kingdom
Distance from station: NE 71km
Updated: 17/10/2017 10:20
Clear
Clear
 Wind from SW
Wind: SW 17 km/h
Temperature: 12°C
Dew Point: 8°C
Humidity: 77%
Barometer: 1019 hPa
Clouds: Clear
Visibility: 10 km
2017/10/17 09:20 EGGD 170920Z AUTO 23009KT 9999 NCD 12/08 Q1019